Terminal Aerodrome Forecast
Issued by NWS Pueblo, CO

Home | Current Version | Previous Version | Text Only | Print | Product List | Glossary On
Versions: 1 2 3 4 5 6 7 8 9 10 11 12 13 14 15 16 17 18 19 20 21 22 23 24
940
FTUS45 KPUB 111722
TAFCOS
TAF
KCOS 111722Z 1118/1218 VRB04KT P6SM SCT180 BKN230
     FM112000 16008KT P6SM FEW140 SCT250
     FM120100 01009KT P6SM SCT140 BKN200
     FM120600 03006KT P6SM FEW200
     FM121600 13006KT P6SM SKC=

USA.gov is the U.S. government's official web portal to all federal, state and local government web resources and services.